createdAt,value
2022-10-06T00:01:16.758Z,9.61
2022-10-06T00:03:46.982Z,9.63
2022-10-06T00:06:15.853Z,9.65
2022-10-06T00:08:44.306Z,9.65
2022-10-06T00:11:12.926Z,9.62
2022-10-06T00:13:40.500Z,9.54
2022-10-06T00:16:12.508Z,9.33
2022-10-06T00:18:39.529Z,9.48
2022-10-06T00:21:06.422Z,9.49
2022-10-06T00:23:33.344Z,9.32
2022-10-06T00:26:00.202Z,9.17
2022-10-06T00:28:27.983Z,9.17
2022-10-06T00:30:56.337Z,9.27
2022-10-06T00:33:24.094Z,9.24
2022-10-06T00:35:58.321Z,9.14
2022-10-06T00:38:25.309Z,9.02
2022-10-06T00:40:56.054Z,8.91
2022-10-06T00:43:43.514Z,9.00
2022-10-06T00:46:47.592Z,8.93
2022-10-06T00:49:20.915Z,8.91
2022-10-06T00:52:09.361Z,8.78
2022-10-06T00:54:36.967Z,8.60
2022-10-06T00:57:05.513Z,8.73
2022-10-06T00:59:32.618Z,8.56
2022-10-06T01:02:44.252Z,8.52
2022-10-06T01:05:18.107Z,8.62
2022-10-06T01:07:45.007Z,8.45
2022-10-06T01:10:11.949Z,8.46
2022-10-06T01:12:38.811Z,8.50
2022-10-06T01:15:06.577Z,8.37
2022-10-06T01:17:38.236Z,8.34
2022-10-06T01:20:12.749Z,8.23
2022-10-06T01:22:43.590Z,8.37
2022-10-06T01:25:13.677Z,8.29
2022-10-06T01:27:43.322Z,8.19
2022-10-06T01:30:14.800Z,8.20
2022-10-06T01:32:42.039Z,8.07
2022-10-06T01:35:10.015Z,8.21
2022-10-06T01:37:36.888Z,8.04
2022-10-06T01:40:04.131Z,8.15
2022-10-06T01:42:33.123Z,8.02
2022-10-06T01:44:59.968Z,7.91
2022-10-06T01:47:27.058Z,7.99
2022-10-06T01:49:54.250Z,8.00
2022-10-06T01:52:21.074Z,7.95
2022-10-06T01:54:47.932Z,7.77
2022-10-06T01:57:14.769Z,7.91
2022-10-06T01:59:43.299Z,7.79
2022-10-06T02:02:10.257Z,7.75
2022-10-06T02:04:37.088Z,7.75
2022-10-06T02:07:04.839Z,7.83
2022-10-06T02:09:32.200Z,7.69
2022-10-06T02:11:59.116Z,7.71
2022-10-06T02:14:25.981Z,7.60
2022-10-06T02:16:52.860Z,7.70
2022-10-06T02:19:19.630Z,7.56
2022-10-06T02:21:46.499Z,7.50
2022-10-06T02:24:13.385Z,7.48
2022-10-06T02:26:40.293Z,7.42
2022-10-06T02:29:07.241Z,7.44
2022-10-06T02:31:34.205Z,7.52
2022-10-06T02:34:01.103Z,7.50
2022-10-06T02:36:27.984Z,7.34
2022-10-06T02:38:54.834Z,7.35
2022-10-06T02:41:21.707Z,7.24
2022-10-06T02:43:48.528Z,7.28
2022-10-06T02:46:15.776Z,7.41
2022-10-06T02:48:43.071Z,7.39
2022-10-06T02:51:13.358Z,7.31
2022-10-06T02:53:40.322Z,7.35
2022-10-06T02:56:11.106Z,7.40
2022-10-06T02:58:43.125Z,7.40
2022-10-06T03:01:15.968Z,7.26
2022-10-06T03:03:44.183Z,7.39
2022-10-06T03:06:23.139Z,7.21
2022-10-06T03:09:00.441Z,7.32
2022-10-06T03:11:30.271Z,7.29
2022-10-06T03:13:57.600Z,7.18
2022-10-06T03:16:32.178Z,7.15
2022-10-06T03:19:00.244Z,7.18
2022-10-06T03:21:30.846Z,7.08
2022-10-06T03:23:59.030Z,7.01
2022-10-06T03:26:30.515Z,6.89
2022-10-06T03:28:57.503Z,6.90
2022-10-06T03:31:29.416Z,6.98
2022-10-06T03:33:56.859Z,6.95
2022-10-06T03:36:26.420Z,6.90
2022-10-06T03:38:53.361Z,6.92
2022-10-06T03:41:26.387Z,6.77
2022-10-06T03:43:54.660Z,6.85
2022-10-06T03:46:24.245Z,6.78
2022-10-06T03:48:52.582Z,6.69
2022-10-06T03:51:27.263Z,6.72
2022-10-06T03:53:54.073Z,6.78
2022-10-06T03:56:25.041Z,6.74
2022-10-06T03:58:55.384Z,6.48
2022-10-06T04:01:26.382Z,6.64
2022-10-06T04:03:55.427Z,6.55
2022-10-06T04:06:23.464Z,6.60
2022-10-06T04:08:51.696Z,6.50
2022-10-06T04:11:21.723Z,6.45
2022-10-06T04:13:52.721Z,6.44
2022-10-06T04:16:22.517Z,6.44
2022-10-06T04:18:51.808Z,6.50
2022-10-06T04:21:19.225Z,6.51
2022-10-06T04:23:46.655Z,6.43
2022-10-06T04:26:16.585Z,6.45
2022-10-06T04:28:44.865Z,6.45
2022-10-06T04:31:14.972Z,6.44
2022-10-06T04:33:43.516Z,6.44
2022-10-06T04:36:13.349Z,6.39
2022-10-06T04:38:40.147Z,6.37
2022-10-06T04:41:10.194Z,6.22
2022-10-06T04:43:37.088Z,6.34
2022-10-06T04:46:23.964Z,6.32
2022-10-06T04:48:52.538Z,6.24
2022-10-06T04:51:21.691Z,6.32
2022-10-06T04:53:49.583Z,6.25
2022-10-06T04:56:27.744Z,6.28
2022-10-06T04:58:56.097Z,6.07
2022-10-06T05:01:29.144Z,6.27
2022-10-06T05:03:57.834Z,6.13
2022-10-06T05:06:27.743Z,6.24
2022-10-06T05:08:58.074Z,6.29
2022-10-06T05:11:26.085Z,6.19
2022-10-06T05:13:56.238Z,6.16
2022-10-06T05:16:24.899Z,6.35
2022-10-06T05:18:51.938Z,6.37
2022-10-06T05:21:22.193Z,6.38
2022-10-06T05:23:49.071Z,6.35
2022-10-06T05:26:18.700Z,6.55
2022-10-06T05:28:45.866Z,6.62
2022-10-06T05:31:24.746Z,6.58
2022-10-06T05:33:51.751Z,6.77
2022-10-06T05:36:21.718Z,6.91
2022-10-06T05:38:49.047Z,6.98
2022-10-06T05:41:18.580Z,7.06
2022-10-06T05:43:46.126Z,7.14
2022-10-06T05:46:17.626Z,7.30
2022-10-06T05:48:49.254Z,7.40
2022-10-06T05:51:17.793Z,7.50
2022-10-06T05:53:45.612Z,7.64
2022-10-06T05:56:18.060Z,7.68
2022-10-06T05:58:48.430Z,7.85
2022-10-06T06:01:36.729Z,7.97
2022-10-06T06:04:12.597Z,8.00
2022-10-06T06:06:44.717Z,8.18
2022-10-06T06:09:13.280Z,8.24
2022-10-06T06:11:42.937Z,8.32
2022-10-06T06:14:12.133Z,8.40
2022-10-06T06:16:40.615Z,8.46
2022-10-06T06:19:09.866Z,8.44
2022-10-06T06:21:37.080Z,8.34
2022-10-06T06:24:05.248Z,8.40
2022-10-06T06:26:35.324Z,8.64
2022-10-06T06:29:05.499Z,8.70
2022-10-06T06:31:37.532Z,8.62
2022-10-06T06:34:06.849Z,8.82
2022-10-06T06:36:40.968Z,8.89
2022-10-06T06:39:13.426Z,8.93
2022-10-06T06:41:42.854Z,9.08
2022-10-06T06:44:11.514Z,9.01
2022-10-06T06:46:39.670Z,9.09
2022-10-06T06:49:07.411Z,9.23
2022-10-06T06:51:40.383Z,9.25
2022-10-06T06:54:09.282Z,9.32
2022-10-06T06:56:36.343Z,9.30
2022-10-06T06:59:08.927Z,9.50
2022-10-06T07:01:36.284Z,9.53
2022-10-06T07:04:04.138Z,9.60
2022-10-06T07:06:32.513Z,9.57
2022-10-06T07:09:00.532Z,9.62
2022-10-06T07:11:35.772Z,9.74
2022-10-06T07:14:05.541Z,9.93
2022-10-06T07:16:51.799Z,10.08
2022-10-06T07:19:39.213Z,10.13
2022-10-06T07:22:32.843Z,10.48
2022-10-06T07:25:08.548Z,10.72
2022-10-06T07:27:44.553Z,11.00
2022-10-06T07:30:19.315Z,11.24
2022-10-06T07:32:47.872Z,11.37
2022-10-06T07:35:16.623Z,11.71
2022-10-06T07:37:43.920Z,11.97
2022-10-06T07:40:11.230Z,12.16
2022-10-06T07:42:48.950Z,12.48
2022-10-06T07:45:37.053Z,12.75
2022-10-06T07:48:24.231Z,13.16
2022-10-06T07:50:52.487Z,13.67
2022-10-06T07:53:20.539Z,14.33
2022-10-06T07:55:47.990Z,14.81
2022-10-06T07:58:20.427Z,15.43
2022-10-06T08:00:53.088Z,15.56
2022-10-06T08:03:21.167Z,15.70
2022-10-06T08:05:56.582Z,15.94
2022-10-06T08:08:23.887Z,16.31
2022-10-06T08:10:56.089Z,16.92
2022-10-06T08:13:23.706Z,16.72
2022-10-06T08:15:51.563Z,16.77
2022-10-06T08:18:40.953Z,16.96
2022-10-06T08:21:27.332Z,17.10
2022-10-06T08:23:55.938Z,17.53
2022-10-06T08:26:25.226Z,17.96
2022-10-06T08:28:55.295Z,18.23
2022-10-06T08:31:24.000Z,18.62
2022-10-06T08:33:56.177Z,18.55
2022-10-06T08:36:30.890Z,19.05
2022-10-06T08:38:59.020Z,18.72
2022-10-06T08:41:51.222Z,19.14
2022-10-06T08:44:30.418Z,19.82
2022-10-06T08:47:04.023Z,19.72
2022-10-06T08:49:38.759Z,19.49
2022-10-06T08:52:17.590Z,19.00
2022-10-06T08:55:04.647Z,18.46
2022-10-06T08:57:49.874Z,18.69
2022-10-06T09:00:21.222Z,17.80
2022-10-06T09:02:50.359Z,18.19
2022-10-06T09:05:25.293Z,18.71
2022-10-06T09:08:19.359Z,19.48
2022-10-06T09:10:59.789Z,19.21
2022-10-06T09:13:35.408Z,19.19
2022-10-06T09:16:08.110Z,19.12
2022-10-06T09:18:56.417Z,19.79
2022-10-06T09:21:40.013Z,19.42
2022-10-06T09:24:13.257Z,19.73
2022-10-06T09:26:44.115Z,19.66
2022-10-06T09:29:11.284Z,19.72
2022-10-06T09:31:40.505Z,19.76
2022-10-06T09:34:16.323Z,19.41
2022-10-06T09:37:12.850Z,19.83
2022-10-06T09:39:42.478Z,19.41
2022-10-06T09:42:23.086Z,19.33
2022-10-06T09:45:23.862Z,20.08
2022-10-06T09:47:50.677Z,20.81
2022-10-06T09:50:25.506Z,20.94
2022-10-06T09:52:58.094Z,21.90
2022-10-06T09:55:29.905Z,22.07
2022-10-06T09:57:57.869Z,21.73
2022-10-06T10:00:31.657Z,21.42
2022-10-06T10:03:00.025Z,21.54
2022-10-06T10:05:29.449Z,21.85
2022-10-06T10:08:03.525Z,22.09
2022-10-06T10:10:30.635Z,21.84
2022-10-06T10:12:59.424Z,22.09
2022-10-06T10:15:48.935Z,21.63
2022-10-06T10:18:17.151Z,22.23
2022-10-06T10:20:57.590Z,22.86
2022-10-06T10:23:32.933Z,22.93
2022-10-06T10:26:15.344Z,22.77
2022-10-06T10:28:57.177Z,23.61
2022-10-06T10:31:42.850Z,23.55
2022-10-06T10:34:34.696Z,24.29
2022-10-06T10:37:10.569Z,24.63
2022-10-06T10:39:42.153Z,25.66
2022-10-06T10:42:18.817Z,26.73
2022-10-06T10:44:57.377Z,27.09
2022-10-06T10:47:30.361Z,27.40
2022-10-06T10:50:11.821Z,26.83
2022-10-06T10:52:42.725Z,27.00
2022-10-06T10:55:27.659Z,27.31
2022-10-06T10:57:59.746Z,27.72
2022-10-06T11:00:29.489Z,27.91
2022-10-06T11:02:58.802Z,27.85
2022-10-06T11:05:34.384Z,27.65
2022-10-06T11:08:26.197Z,28.38
2022-10-06T11:11:02.504Z,27.68
2022-10-06T11:13:40.843Z,27.84
2022-10-06T11:16:41.512Z,28.22
2022-10-06T11:19:43.337Z,28.62
2022-10-06T11:22:33.859Z,29.57
2022-10-06T11:25:21.732Z,29.56
2022-10-06T11:27:49.473Z,29.47
2022-10-06T11:30:28.657Z,29.64
2022-10-06T11:33:13.682Z,28.92
2022-10-06T11:35:44.452Z,28.06
2022-10-06T11:38:11.179Z,26.62
2022-10-06T11:41:09.864Z,26.89
2022-10-06T11:44:03.645Z,27.16
2022-10-06T11:46:42.702Z,27.17
2022-10-06T11:49:30.294Z,26.12
2022-10-06T11:52:08.295Z,26.15
2022-10-06T11:54:35.610Z,27.03
2022-10-06T11:57:02.491Z,26.93
2022-10-06T11:59:31.436Z,26.76
2022-10-06T12:02:01.009Z,25.44
2022-10-06T12:04:28.781Z,25.10
2022-10-06T12:06:58.460Z,24.91
2022-10-06T12:09:46.227Z,24.10
2022-10-06T12:12:17.857Z,23.75
2022-10-06T12:17:56.619Z,24.41
2022-10-06T12:20:42.463Z,23.80
2022-10-06T12:23:09.201Z,24.28
2022-10-06T12:26:01.893Z,24.20
2022-10-06T12:28:39.185Z,23.57
2022-10-06T12:31:24.596Z,23.81
2022-10-06T12:33:51.479Z,23.94
2022-10-06T12:36:22.246Z,23.64
2022-10-06T12:39:10.315Z,23.87
2022-10-06T12:42:18.336Z,23.61
2022-10-06T12:44:51.658Z,23.49
2022-10-06T12:47:37.252Z,23.56
2022-10-06T12:50:19.430Z,24.31
2022-10-06T12:52:53.849Z,23.94
2022-10-06T12:55:45.513Z,23.70
2022-10-06T12:58:20.227Z,24.57
2022-10-06T13:00:48.172Z,24.70
2022-10-06T13:03:24.397Z,26.35
2022-10-06T13:06:02.655Z,27.12
2022-10-06T13:08:34.743Z,26.96
2022-10-06T13:11:22.612Z,26.35
2022-10-06T13:14:10.814Z,26.96
2022-10-06T13:16:41.586Z,27.03
2022-10-06T13:19:16.496Z,28.00
2022-10-06T13:21:44.320Z,28.54
2022-10-06T13:24:20.547Z,28.35
2022-10-06T13:26:48.239Z,27.95
2022-10-06T13:29:25.195Z,28.25
2022-10-06T13:31:54.531Z,28.34
2022-10-06T13:34:27.369Z,28.41
2022-10-06T13:36:54.740Z,27.69
2022-10-06T13:39:24.016Z,28.16
2022-10-06T13:41:56.172Z,28.14
2022-10-06T13:44:37.995Z,28.76
2022-10-06T13:47:15.483Z,28.70
2022-10-06T13:50:19.832Z,28.80
2022-10-06T13:52:48.137Z,28.11
2022-10-06T13:55:24.058Z,26.93
2022-10-06T13:57:51.938Z,26.46
2022-10-06T14:00:23.780Z,25.89
2022-10-06T14:02:57.366Z,26.52
2022-10-06T14:05:37.372Z,26.00
2022-10-06T14:08:10.339Z,26.05
2022-10-06T14:10:48.656Z,25.78
2022-10-06T14:13:19.168Z,24.84
2022-10-06T14:16:00.296Z,24.73
2022-10-06T14:18:38.823Z,24.69
2022-10-06T14:21:25.409Z,24.65
2022-10-06T14:23:55.907Z,24.28
2022-10-06T14:26:28.767Z,23.82
2022-10-06T14:28:55.885Z,23.68
2022-10-06T14:31:25.111Z,23.51
2022-10-06T14:33:54.490Z,23.06
2022-10-06T14:36:30.981Z,22.66
2022-10-06T14:38:58.971Z,22.76
2022-10-06T14:41:28.127Z,22.65
2022-10-06T14:43:56.782Z,22.57
2022-10-06T14:46:25.486Z,22.63
2022-10-06T14:48:52.451Z,22.35
2022-10-06T14:51:20.404Z,22.22
2022-10-06T14:53:54.812Z,22.18
2022-10-06T14:56:24.421Z,22.19
2022-10-06T14:58:52.516Z,22.06
2022-10-06T15:01:23.350Z,22.02
2022-10-06T15:03:52.121Z,21.78
2022-10-06T15:06:37.692Z,21.67
2022-10-06T15:09:05.256Z,21.56
2022-10-06T15:11:32.214Z,21.35
2022-10-06T15:13:59.251Z,21.09
2022-10-06T15:16:29.777Z,20.91
2022-10-06T15:18:59.206Z,20.73
2022-10-06T15:21:27.243Z,20.78
2022-10-06T15:23:58.874Z,20.15
2022-10-06T15:26:45.356Z,20.35
2022-10-06T15:29:13.566Z,20.34
2022-10-06T15:31:45.313Z,20.23
2022-10-06T15:34:14.406Z,20.17
2022-10-06T15:36:42.622Z,20.20
2022-10-06T15:39:14.192Z,19.86
2022-10-06T15:41:43.026Z,19.79
2022-10-06T15:44:11.257Z,19.78
2022-10-06T15:46:40.547Z,19.63
2022-10-06T15:49:09.787Z,19.72
2022-10-06T15:51:46.676Z,19.51
2022-10-06T15:54:27.172Z,19.55
2022-10-06T15:56:56.487Z,19.47
2022-10-06T15:59:25.059Z,19.37
2022-10-06T16:01:56.665Z,19.33
2022-10-06T16:04:35.284Z,19.26
2022-10-06T16:07:07.959Z,19.25
2022-10-06T16:09:40.665Z,19.13
2022-10-06T16:12:12.164Z,18.97
2022-10-06T16:14:39.054Z,18.85
2022-10-06T16:17:06.959Z,18.82
2022-10-06T16:19:36.957Z,18.71
2022-10-06T16:22:06.087Z,18.63
2022-10-06T16:24:33.443Z,18.60
2022-10-06T16:27:01.670Z,18.40
2022-10-06T16:29:30.593Z,18.42
2022-10-06T16:31:59.115Z,18.36
2022-10-06T16:34:26.046Z,18.36
2022-10-06T16:36:52.860Z,18.36
2022-10-06T16:39:21.920Z,18.32
2022-10-06T16:41:49.732Z,18.26
2022-10-06T16:44:17.363Z,18.16
2022-10-06T16:46:45.403Z,18.02
2022-10-06T16:49:12.635Z,18.03
2022-10-06T16:51:42.148Z,17.94
2022-10-06T16:54:11.043Z,17.94
2022-10-06T16:56:39.393Z,17.80
2022-10-06T16:59:18.094Z,17.77
2022-10-06T17:01:45.963Z,17.81
2022-10-06T17:04:14.538Z,17.70
2022-10-06T17:06:44.362Z,17.67
2022-10-06T17:09:23.077Z,17.64
2022-10-06T17:12:10.114Z,17.58
2022-10-06T17:14:36.940Z,17.52
2022-10-06T17:17:04.891Z,17.31
2022-10-06T17:19:31.850Z,17.37
2022-10-06T17:21:59.942Z,17.26
2022-10-06T17:24:28.401Z,17.09
2022-10-06T17:26:57.008Z,16.99
2022-10-06T17:29:24.070Z,16.98
2022-10-06T17:31:56.327Z,16.88
2022-10-06T17:34:26.464Z,16.88
2022-10-06T17:36:54.839Z,16.72
2022-10-06T17:39:23.179Z,16.73
2022-10-06T17:41:52.836Z,16.75
2022-10-06T17:44:23.368Z,16.61
2022-10-06T17:46:52.972Z,16.56
2022-10-06T17:49:22.129Z,16.45
2022-10-06T17:51:51.799Z,16.35
2022-10-06T17:54:20.969Z,16.39
2022-10-06T17:56:50.157Z,16.32
2022-10-06T17:59:22.506Z,16.28
2022-10-06T18:01:51.711Z,16.15
2022-10-06T18:04:19.651Z,15.88
2022-10-06T18:06:47.469Z,16.01
2022-10-06T18:09:19.583Z,15.82
2022-10-06T18:11:54.818Z,15.86
2022-10-06T18:14:24.323Z,15.79
2022-10-06T18:16:58.013Z,15.53
2022-10-06T18:19:30.705Z,15.62
2022-10-06T18:22:01.152Z,15.67
2022-10-06T18:24:30.654Z,15.57
2022-10-06T18:27:00.377Z,15.60
2022-10-06T18:29:34.097Z,15.39
2022-10-06T18:32:48.127Z,15.38
2022-10-06T18:37:37.140Z,15.21
2022-10-06T18:40:07.065Z,15.21
2022-10-06T18:42:34.475Z,15.16
2022-10-06T18:45:20.384Z,15.12
2022-10-06T18:48:05.860Z,15.03
2022-10-06T18:50:33.468Z,15.03
2022-10-06T18:53:00.932Z,14.82
2022-10-06T18:55:29.788Z,14.76
2022-10-06T18:57:57.335Z,14.91
2022-10-06T19:00:26.025Z,14.91
2022-10-06T19:02:55.637Z,14.91
2022-10-06T19:05:24.083Z,14.86
2022-10-06T19:07:54.236Z,14.74
2022-10-06T19:10:22.438Z,14.79
2022-10-06T19:12:49.845Z,14.66
2022-10-06T19:15:20.776Z,14.74
2022-10-06T19:17:49.382Z,14.71
2022-10-06T19:20:18.876Z,14.67
2022-10-06T19:22:47.816Z,14.64
2022-10-06T19:25:19.081Z,14.64
2022-10-06T19:27:47.038Z,14.55
2022-10-06T19:30:15.313Z,14.44
2022-10-06T19:32:42.670Z,14.40
2022-10-06T19:35:10.720Z,14.49
2022-10-06T19:37:38.292Z,14.45
2022-10-06T19:40:08.878Z,14.33
2022-10-06T19:42:48.513Z,14.16
2022-10-06T19:45:16.683Z,14.27
2022-10-06T19:47:45.515Z,14.23
2022-10-06T19:50:13.635Z,14.22
2022-10-06T19:52:41.454Z,13.97
2022-10-06T19:55:08.619Z,14.00
2022-10-06T19:57:35.511Z,14.12
2022-10-06T20:00:06.610Z,13.98
2022-10-06T20:02:34.000Z,14.07
2022-10-06T20:05:02.439Z,14.06
2022-10-06T20:07:29.814Z,14.01
2022-10-06T20:09:58.454Z,13.98
2022-10-06T20:12:26.992Z,13.89
2022-10-06T20:14:53.983Z,13.91
2022-10-06T20:17:21.240Z,13.86
2022-10-06T20:19:55.164Z,13.97
2022-10-06T20:22:24.711Z,13.79
2022-10-06T20:24:52.295Z,13.94
2022-10-06T20:27:19.489Z,13.86
2022-10-06T20:29:46.545Z,13.80
2022-10-06T20:32:14.246Z,13.76
2022-10-06T20:34:41.044Z,13.64
2022-10-06T20:37:07.930Z,13.62
2022-10-06T20:39:53.449Z,13.59
2022-10-06T20:42:21.456Z,13.54
2022-10-06T20:44:48.412Z,13.51
2022-10-06T20:47:16.697Z,13.47
2022-10-06T20:49:44.601Z,13.34
2022-10-06T20:52:14.662Z,13.27
2022-10-06T20:54:42.311Z,13.32
2022-10-06T20:57:09.727Z,13.11
2022-10-06T20:59:37.902Z,13.15
2022-10-06T21:02:05.791Z,13.09
2022-10-06T21:04:33.980Z,13.16
2022-10-06T21:07:01.790Z,13.13
2022-10-06T21:09:29.418Z,13.02
2022-10-06T21:11:58.964Z,13.12
2022-10-06T21:14:26.038Z,12.93
2022-10-06T21:16:53.706Z,12.82
2022-10-06T21:19:20.846Z,12.94
2022-10-06T21:21:53.574Z,12.92
2022-10-06T21:24:20.810Z,12.88
2022-10-06T21:26:48.520Z,12.90
2022-10-06T21:29:16.195Z,12.88
2022-10-06T21:31:44.885Z,12.72
2022-10-06T21:34:12.294Z,12.67
2022-10-06T21:36:39.343Z,12.60
2022-10-06T21:39:06.876Z,12.60
2022-10-06T21:41:39.214Z,12.63
2022-10-06T21:44:10.431Z,12.61
2022-10-06T21:46:38.910Z,12.57
2022-10-06T21:49:14.616Z,12.53
2022-10-06T21:51:43.885Z,12.49
2022-10-06T21:54:10.744Z,12.47
2022-10-06T21:56:39.157Z,12.46
2022-10-06T21:59:06.840Z,12.44
2022-10-06T22:01:39.996Z,12.41
2022-10-06T22:04:07.653Z,12.19
2022-10-06T22:06:36.515Z,12.36
2022-10-06T22:09:06.292Z,12.33
2022-10-06T22:11:36.376Z,12.23
2022-10-06T22:14:05.657Z,12.34
2022-10-06T22:16:34.268Z,12.30
2022-10-06T22:19:03.174Z,12.17
2022-10-06T22:21:37.420Z,12.14
2022-10-06T22:24:07.227Z,12.14
2022-10-06T22:26:37.653Z,12.06
2022-10-06T22:29:06.819Z,11.95
2022-10-06T22:31:34.428Z,11.95
2022-10-06T22:34:04.952Z,11.96
2022-10-06T22:36:33.756Z,11.92
2022-10-06T22:39:01.290Z,11.91
2022-10-06T22:41:29.082Z,11.94
2022-10-06T22:43:58.155Z,11.91
2022-10-06T22:46:31.004Z,11.88
2022-10-06T22:48:58.698Z,11.96
2022-10-06T22:51:25.745Z,11.89
2022-10-06T22:53:58.443Z,11.82
2022-10-06T22:56:27.399Z,11.82
2022-10-06T22:58:55.511Z,11.72
2022-10-06T23:01:22.871Z,11.73
2022-10-06T23:03:49.749Z,11.67
2022-10-06T23:06:17.892Z,11.67
2022-10-06T23:08:45.160Z,11.66
2022-10-06T23:11:18.302Z,11.61
2022-10-06T23:13:45.673Z,11.52
2022-10-06T23:16:15.401Z,11.42
2022-10-06T23:18:43.745Z,11.47
2022-10-06T23:21:19.407Z,11.44
2022-10-06T23:23:47.517Z,11.36
2022-10-06T23:26:16.153Z,11.32
2022-10-06T23:28:43.299Z,11.31
2022-10-06T23:31:11.001Z,11.24
2022-10-06T23:33:38.987Z,11.13
2022-10-06T23:36:08.695Z,11.23
2022-10-06T23:38:37.859Z,11.23
2022-10-06T23:41:07.754Z,11.23
2022-10-06T23:43:35.113Z,11.01
2022-10-06T23:46:02.841Z,11.05
2022-10-06T23:48:30.097Z,11.11
2022-10-06T23:51:02.615Z,11.00
2022-10-06T23:53:30.954Z,11.02
2022-10-06T23:55:58.445Z,10.97
2022-10-06T23:58:26.492Z,10.97
